createdAt,value
2018-04-13T00:01:03.791Z,12.10
2018-04-13T00:03:37.256Z,12.10
2018-04-13T00:06:03.663Z,12.00
2018-04-13T00:08:29.939Z,12.00
2018-04-13T00:10:56.990Z,12.00
2018-04-13T00:13:24.033Z,11.90
2018-04-13T00:15:50.306Z,11.90
2018-04-13T00:18:16.582Z,12.00
2018-04-13T00:20:42.988Z,12.00
2018-04-13T00:23:09.271Z,12.00
2018-04-13T00:25:37.311Z,12.00
2018-04-13T00:28:04.440Z,12.00
2018-04-13T00:30:30.836Z,12.00
2018-04-13T00:32:58.065Z,12.00
2018-04-13T00:35:25.191Z,11.80
2018-04-13T00:37:51.557Z,11.80
2018-04-13T00:40:17.868Z,11.90
2018-04-13T00:42:44.935Z,11.80
2018-04-13T00:45:12.015Z,11.70
2018-04-13T00:47:39.097Z,11.70
2018-04-13T00:50:05.896Z,11.70
2018-04-13T00:52:32.200Z,11.60
2018-04-13T00:54:59.319Z,11.50
2018-04-13T00:57:25.600Z,11.50
2018-04-13T00:59:52.655Z,11.40
2018-04-13T01:02:19.831Z,11.30
2018-04-13T01:04:46.924Z,11.20
2018-04-13T01:07:13.198Z,11.30
2018-04-13T01:09:39.686Z,11.20
2018-04-13T01:12:06.040Z,11.10
2018-04-13T01:14:33.122Z,11.10
2018-04-13T01:17:00.210Z,11.20
2018-04-13T01:19:27.481Z,11.20
2018-04-13T01:21:53.896Z,11.10
2018-04-13T01:24:20.136Z,11.10
2018-04-13T01:26:46.355Z,11.00
2018-04-13T01:29:12.591Z,11.00
2018-04-13T01:31:38.896Z,10.90
2018-04-13T01:34:05.251Z,10.90
2018-04-13T01:36:31.528Z,10.80
2018-04-13T01:38:57.784Z,10.80
2018-04-13T01:41:24.045Z,10.70
2018-04-13T01:43:50.303Z,10.60
2018-04-13T01:46:16.571Z,10.60
2018-04-13T01:48:50.511Z,10.60
2018-04-13T01:51:16.788Z,10.60
2018-04-13T01:53:43.071Z,10.60
2018-04-13T01:56:10.255Z,10.60
2018-04-13T01:58:36.627Z,10.60
2018-04-13T02:01:02.961Z,10.60
2018-04-13T02:03:29.267Z,10.60
2018-04-13T02:05:56.276Z,10.80
2018-04-13T02:08:22.573Z,10.80
2018-04-13T02:10:49.621Z,10.90
2018-04-13T02:13:16.750Z,10.80
2018-04-13T02:15:43.012Z,10.80
2018-04-13T02:18:09.348Z,10.80
2018-04-13T02:20:35.787Z,10.70
2018-04-13T02:23:02.166Z,10.60
2018-04-13T02:25:29.114Z,10.30
2018-04-13T02:27:55.352Z,10.30
2018-04-13T02:30:21.637Z,10.40
2018-04-13T02:32:47.882Z,10.40
2018-04-13T02:35:14.120Z,10.30
2018-04-13T02:37:40.451Z,10.30
2018-04-13T02:40:06.799Z,10.30
2018-04-13T02:42:33.172Z,10.30
2018-04-13T02:44:59.400Z,10.20
2018-04-13T02:47:25.652Z,10.00
2018-04-13T02:49:51.914Z,9.90
2018-04-13T02:52:18.243Z,9.80
2018-04-13T02:54:44.499Z,9.70
2018-04-13T02:57:10.868Z,9.70
2018-04-13T02:59:37.918Z,9.60
2018-04-13T03:02:04.169Z,9.60
2018-04-13T03:04:31.267Z,9.50
2018-04-13T03:06:57.491Z,9.50
2018-04-13T03:09:24.468Z,9.50
2018-04-13T03:11:50.722Z,9.50
2018-04-13T03:14:17.043Z,9.60
2018-04-13T03:16:43.336Z,9.60
2018-04-13T03:19:10.410Z,9.70
2018-04-13T03:21:37.528Z,9.70
2018-04-13T03:24:03.880Z,9.70
2018-04-13T03:26:30.160Z,9.70
2018-04-13T03:28:57.128Z,9.60
2018-04-13T03:31:24.125Z,9.70
2018-04-13T03:33:50.410Z,9.60
2018-04-13T03:36:16.679Z,9.70
2018-04-13T03:38:43.682Z,9.60
2018-04-13T03:41:09.938Z,9.60
2018-04-13T03:43:36.247Z,9.50
2018-04-13T03:46:02.522Z,9.60
2018-04-13T03:48:28.785Z,9.60
2018-04-13T03:53:48.450Z,9.70
2018-04-13T03:56:14.743Z,9.90
2018-04-13T03:58:40.996Z,9.90
2018-04-13T04:01:07.950Z,9.90
2018-04-13T04:03:34.273Z,9.90
2018-04-13T04:06:00.512Z,9.90
2018-04-13T04:08:26.812Z,9.90
2018-04-13T04:10:53.047Z,9.90
2018-04-13T04:13:19.264Z,9.90
2018-04-13T04:15:46.301Z,9.90
2018-04-13T04:18:12.546Z,9.90
2018-04-13T04:20:50.950Z,9.80
2018-04-13T04:37:02.696Z,9.60
2018-04-13T04:39:28.949Z,9.60
2018-04-13T04:41:55.177Z,9.60
2018-04-13T04:44:21.377Z,9.70
2018-04-13T04:46:47.570Z,9.80
2018-04-13T04:49:13.758Z,9.80
2018-04-13T04:51:40.007Z,9.90
2018-04-13T04:54:06.266Z,9.90
2018-04-13T04:56:32.497Z,9.90
2018-04-13T04:58:59.424Z,9.90
2018-04-13T05:01:25.638Z,9.90
2018-04-13T05:03:51.829Z,9.90
2018-04-13T05:06:18.843Z,10.20
2018-04-13T05:08:45.014Z,10.20
2018-04-13T05:11:11.237Z,10.30
2018-04-13T05:13:37.440Z,10.30
2018-04-13T05:16:03.654Z,10.20
2018-04-13T05:18:30.803Z,10.20
2018-04-13T05:20:57.015Z,10.20
2018-04-13T05:23:23.233Z,10.30
2018-04-13T05:25:49.429Z,10.30
2018-04-13T05:28:16.392Z,10.40
2018-04-13T05:30:43.330Z,10.50
2018-04-13T05:33:09.567Z,10.40
2018-04-13T05:35:35.806Z,10.50
2018-04-13T05:38:02.100Z,10.60
2018-04-13T05:40:39.844Z,10.70
2018-04-13T05:43:06.103Z,10.80
2018-04-13T05:45:32.364Z,11.00
2018-04-13T05:47:59.339Z,11.00
2018-04-13T05:50:26.317Z,11.00
2018-04-13T05:52:52.498Z,11.00
2018-04-13T05:55:18.735Z,11.00
2018-04-13T05:57:44.920Z,10.90
2018-04-13T06:00:11.221Z,10.90
2018-04-13T06:02:37.432Z,10.90
2018-04-13T06:05:03.691Z,10.90
2018-04-13T06:07:29.888Z,10.90
2018-04-13T06:10:07.941Z,11.00
2018-04-13T06:12:34.195Z,11.10
2018-04-13T06:15:00.403Z,11.20
2018-04-13T06:17:26.521Z,11.30
2018-04-13T06:19:53.462Z,11.60
2018-04-13T06:22:19.734Z,11.50
2018-04-13T06:24:45.929Z,11.70
2018-04-13T06:27:12.081Z,11.80
2018-04-13T06:29:38.334Z,11.80
2018-04-13T06:32:04.548Z,11.90
2018-04-13T06:34:30.738Z,12.00
2018-04-13T06:36:56.971Z,12.10
2018-04-13T06:39:36.220Z,12.20
2018-04-13T06:42:03.436Z,12.20
2018-04-13T06:44:29.977Z,12.30
2018-04-13T06:46:57.164Z,12.40
2018-04-13T06:49:25.036Z,12.60
2018-04-13T06:51:51.432Z,12.60
2018-04-13T06:54:17.649Z,12.70
2018-04-13T06:56:44.780Z,12.70
2018-04-13T06:59:10.952Z,12.80
2018-04-13T07:01:37.241Z,13.10
2018-04-13T07:04:03.578Z,13.30
2018-04-13T07:06:29.815Z,13.30
2018-04-13T07:08:55.948Z,13.30
2018-04-13T07:11:22.258Z,13.40
2018-04-13T07:13:48.458Z,13.50
2018-04-13T07:16:14.617Z,13.30
2018-04-13T07:18:40.818Z,13.30
2018-04-13T07:21:07.051Z,13.20
2018-04-13T07:23:34.106Z,13.10
2018-04-13T07:26:00.281Z,13.00
2018-04-13T07:28:26.484Z,13.00
2018-04-13T07:30:52.724Z,13.10
2018-04-13T07:33:18.906Z,13.10
2018-04-13T07:35:45.891Z,13.20
2018-04-13T07:38:12.829Z,13.20
2018-04-13T07:40:39.105Z,13.20
2018-04-13T07:43:05.357Z,13.30
2018-04-13T07:45:31.536Z,13.30
2018-04-13T07:47:57.767Z,13.30
2018-04-13T07:50:23.928Z,13.40
2018-04-13T07:52:50.137Z,13.40
2018-04-13T07:55:16.323Z,13.40
2018-04-13T07:57:42.519Z,13.50
2018-04-13T08:00:08.720Z,13.50
2018-04-13T08:02:36.164Z,13.40
2018-04-13T08:05:02.282Z,13.30
2018-04-13T08:07:28.497Z,13.30
2018-04-13T08:09:54.817Z,13.20
2018-04-13T08:12:21.751Z,13.10
2018-04-13T08:14:47.972Z,13.10
2018-04-13T08:17:14.135Z,13.00
2018-04-13T08:19:40.375Z,13.00
2018-04-13T08:22:06.693Z,13.00
2018-04-13T08:24:33.880Z,12.90
2018-04-13T08:27:00.132Z,12.90
2018-04-13T08:29:27.113Z,12.90
2018-04-13T08:31:53.313Z,12.90
2018-04-13T08:34:19.554Z,12.90
2018-04-13T08:36:45.771Z,13.00
2018-04-13T08:39:15.055Z,13.30
2018-04-13T08:41:41.247Z,13.40
2018-04-13T08:44:07.478Z,13.60
2018-04-13T08:46:33.859Z,13.70
2018-04-13T08:49:05.663Z,13.70
2018-04-13T08:51:31.701Z,13.70
2018-04-13T08:53:57.888Z,13.60
2018-04-13T08:56:24.159Z,13.60
2018-04-13T08:58:51.189Z,13.70
2018-04-13T09:01:17.382Z,13.90
2018-04-13T09:03:43.570Z,14.10
2018-04-13T09:06:09.839Z,14.40
2018-04-13T09:08:36.065Z,14.70
2018-04-13T09:11:03.093Z,15.00
2018-04-13T09:13:39.935Z,14.90
2018-04-13T09:16:06.865Z,15.60
2018-04-13T09:18:33.890Z,15.80
2018-04-13T09:21:00.030Z,15.80
2018-04-13T09:23:26.269Z,16.10
2018-04-13T09:25:52.505Z,16.40
2018-04-13T09:28:18.727Z,16.40
2018-04-13T09:30:44.924Z,16.50
2018-04-13T09:33:11.784Z,16.70
2018-04-13T09:35:37.974Z,16.90
2018-04-13T09:38:04.258Z,17.00
2018-04-13T09:40:31.181Z,17.30
2018-04-13T09:42:57.677Z,17.30
2018-04-13T09:45:24.621Z,17.40
2018-04-13T09:47:50.791Z,17.40
2018-04-13T09:50:17.111Z,17.50
2018-04-13T09:52:43.306Z,17.60
2018-04-13T09:55:09.511Z,17.70
2018-04-13T09:57:36.030Z,17.70
2018-04-13T10:00:02.293Z,17.70
2018-04-13T10:02:35.257Z,17.70
2018-04-13T10:05:01.481Z,17.70
2018-04-13T10:07:27.623Z,17.70
2018-04-13T10:09:53.781Z,17.60
2018-04-13T10:12:19.989Z,17.40
2018-04-13T10:14:46.181Z,17.20
2018-04-13T10:17:12.385Z,17.00
2018-04-13T10:19:38.601Z,16.80
2018-04-13T10:22:04.895Z,16.60
2018-04-13T10:24:31.089Z,16.50
2018-04-13T10:26:57.274Z,16.30
2018-04-13T10:29:23.569Z,16.30
2018-04-13T10:31:49.861Z,16.20
2018-04-13T10:34:16.103Z,16.10
2018-04-13T10:36:42.338Z,16.10
2018-04-13T10:39:09.553Z,16.10
2018-04-13T10:41:35.786Z,16.10
2018-04-13T10:44:02.034Z,16.20
2018-04-13T10:46:28.210Z,16.20
2018-04-13T10:48:54.464Z,16.20
2018-04-13T10:51:20.836Z,16.20
2018-04-13T10:53:47.804Z,16.10
2018-04-13T10:56:14.846Z,15.90
2018-04-13T10:58:41.841Z,15.80
2018-04-13T11:01:08.055Z,15.80
2018-04-13T11:03:34.296Z,15.80
2018-04-13T11:06:01.225Z,15.80
2018-04-13T11:08:27.409Z,15.80
2018-04-13T11:10:53.655Z,16.10
2018-04-13T11:13:19.894Z,16.40
2018-04-13T11:15:46.098Z,16.60
2018-04-13T11:18:12.258Z,16.70
2018-04-13T11:20:38.538Z,16.70
2018-04-13T11:23:05.798Z,16.60
2018-04-13T11:25:32.002Z,16.50
2018-04-13T11:27:58.942Z,16.30
2018-04-13T11:30:25.125Z,16.20
2018-04-13T11:32:51.603Z,16.10
2018-04-13T11:35:18.280Z,16.10
2018-04-13T11:37:44.692Z,16.60
2018-04-13T11:40:11.170Z,16.90
2018-04-13T11:42:37.662Z,17.30
2018-04-13T11:45:04.484Z,17.60
2018-04-13T11:47:30.982Z,17.60
2018-04-13T11:49:57.552Z,17.60
2018-04-13T11:52:23.909Z,17.30
2018-04-13T11:54:51.053Z,16.80
2018-04-13T11:57:17.443Z,16.80
2018-04-13T11:59:44.587Z,17.00
2018-04-13T12:02:12.036Z,17.20
2018-04-13T12:04:38.859Z,17.20
2018-04-13T12:07:05.682Z,17.50
2018-04-13T12:09:32.390Z,17.60
2018-04-13T12:12:14.190Z,17.70
2018-04-13T12:14:40.784Z,17.60
2018-04-13T12:17:07.456Z,17.40
2018-04-13T12:19:34.835Z,17.40
2018-04-13T12:22:01.143Z,17.40
2018-04-13T12:24:27.692Z,17.70
2018-04-13T12:26:54.359Z,18.00
2018-04-13T12:29:21.602Z,18.20
2018-04-13T12:31:48.404Z,18.20
2018-04-13T12:34:16.650Z,18.30
2018-04-13T12:36:43.072Z,18.50
2018-04-13T12:39:11.796Z,18.60
2018-04-13T12:41:39.934Z,18.40
2018-04-13T12:44:07.111Z,18.60
2018-04-13T12:46:33.779Z,18.60
2018-04-13T12:49:00.448Z,18.50
2018-04-13T12:51:26.813Z,18.80
2018-04-13T12:53:53.947Z,18.90
2018-04-13T12:56:20.335Z,18.90
2018-04-13T12:58:46.673Z,19.10
2018-04-13T13:01:13.029Z,19.20
2018-04-13T13:03:39.365Z,19.40
2018-04-13T13:06:05.919Z,19.30
2018-04-13T13:08:33.302Z,19.20
2018-04-13T13:10:59.638Z,19.20
2018-04-13T13:13:25.908Z,19.50
2018-04-13T13:15:52.974Z,19.90
2018-04-13T13:18:19.466Z,19.80
2018-04-13T13:20:46.473Z,19.80
2018-04-13T13:23:12.845Z,19.80
2018-04-13T13:25:39.358Z,20.00
2018-04-13T13:28:05.739Z,19.90
2018-04-13T13:30:32.073Z,19.90
2018-04-13T13:33:00.238Z,20.10
2018-04-13T13:35:27.461Z,20.10
2018-04-13T13:37:54.774Z,20.20
2018-04-13T13:40:31.695Z,20.20
2018-04-13T13:42:59.729Z,19.80
2018-04-13T13:45:26.118Z,19.80
2018-04-13T13:47:56.489Z,19.90
2018-04-13T13:50:25.100Z,20.00
2018-04-13T13:52:53.164Z,20.00
2018-04-13T13:55:19.625Z,20.00
2018-04-13T13:57:47.305Z,19.90
2018-04-13T14:00:14.441Z,19.80
2018-04-13T14:05:29.279Z,19.40
2018-04-13T14:07:56.426Z,19.30
2018-04-13T14:10:22.773Z,19.30
2018-04-13T14:12:49.116Z,19.30
2018-04-13T14:15:15.467Z,19.60
2018-04-13T14:17:42.679Z,19.50
2018-04-13T14:20:09.974Z,19.50
2018-04-13T14:22:36.260Z,19.40
2018-04-13T14:25:02.873Z,19.40
2018-04-13T14:27:29.185Z,19.30
2018-04-13T14:29:55.500Z,19.30
2018-04-13T14:32:22.486Z,19.20
2018-04-13T14:34:50.244Z,19.60
2018-04-13T14:37:16.744Z,19.60
2018-04-13T14:39:43.464Z,19.40
2018-04-13T14:42:10.081Z,19.10
2018-04-13T14:44:37.221Z,18.70
2018-04-13T14:47:03.628Z,18.60
2018-04-13T14:49:29.955Z,18.50
2018-04-13T14:51:56.259Z,18.30
2018-04-13T14:54:22.642Z,18.30
2018-04-13T14:56:49.034Z,18.40
2018-04-13T14:59:15.365Z,18.30
2018-04-13T15:01:42.227Z,18.30
2018-04-13T15:04:08.988Z,18.40
2018-04-13T15:06:35.381Z,18.30
2018-04-13T15:09:01.692Z,18.10
2018-04-13T15:11:27.964Z,18.10
2018-04-13T15:13:54.280Z,17.90
2018-04-13T15:16:20.543Z,17.80
2018-04-13T15:18:46.887Z,17.50
2018-04-13T15:21:13.216Z,17.30
2018-04-13T15:23:39.551Z,17.20
2018-04-13T15:26:05.903Z,17.10
2018-04-13T15:28:32.272Z,16.90
2018-04-13T15:30:59.824Z,16.70
2018-04-13T15:33:26.451Z,16.60
2018-04-13T15:35:52.907Z,16.40
2018-04-13T15:38:19.695Z,16.40
2018-04-13T15:40:46.143Z,16.50
2018-04-13T15:43:12.544Z,16.50
2018-04-13T15:45:39.043Z,16.50
2018-04-13T15:48:05.577Z,16.30
2018-04-13T15:50:33.257Z,16.00
2018-04-13T15:53:00.616Z,15.90
2018-04-13T15:55:27.089Z,15.90
2018-04-13T15:57:53.723Z,15.90
2018-04-13T16:00:20.154Z,15.70
2018-04-13T16:02:47.383Z,15.70
2018-04-13T16:05:13.996Z,15.60
2018-04-13T16:07:40.470Z,15.50
2018-04-13T16:10:07.704Z,15.40
2018-04-13T16:12:35.544Z,15.40
2018-04-13T16:15:02.316Z,15.30
2018-04-13T16:17:29.665Z,15.10
2018-04-13T16:19:56.072Z,15.00
2018-04-13T16:22:22.598Z,15.00
2018-04-13T16:24:50.301Z,15.00
2018-04-13T16:27:17.410Z,14.50
2018-04-13T16:29:44.574Z,14.50
2018-04-13T16:32:11.016Z,14.30
2018-04-13T16:34:37.543Z,14.00
2018-04-13T16:37:04.937Z,14.00
2018-04-13T16:39:32.149Z,14.00
2018-04-13T16:41:58.772Z,13.90
2018-04-13T16:44:25.317Z,13.90
2018-04-13T16:46:51.739Z,13.80
2018-04-13T16:49:18.245Z,13.80
2018-04-13T16:51:44.718Z,13.70
2018-04-13T16:54:11.341Z,13.60
2018-04-13T16:56:38.524Z,13.50
2018-04-13T16:59:05.763Z,13.50
2018-04-13T17:01:32.519Z,13.40
2018-04-13T17:04:00.365Z,13.40
2018-04-13T17:06:27.110Z,13.50
2018-04-13T17:08:53.577Z,13.50
2018-04-13T17:11:20.001Z,13.40
2018-04-13T17:13:46.415Z,13.30
2018-04-13T17:16:12.785Z,13.10
2018-04-13T17:18:39.349Z,13.00
2018-04-13T17:21:06.069Z,12.90
2018-04-13T17:23:32.504Z,12.80
2018-04-13T17:25:59.989Z,12.90
2018-04-13T17:28:26.656Z,12.90
2018-04-13T17:30:57.369Z,12.90
2018-04-13T17:33:24.952Z,12.90
2018-04-13T17:35:51.395Z,12.60
2018-04-13T17:38:18.942Z,12.60
2018-04-13T17:40:45.421Z,12.40
2018-04-13T17:43:11.858Z,12.20
2018-04-13T17:45:38.399Z,12.20
2018-04-13T17:48:05.319Z,12.10
2018-04-13T17:50:31.888Z,12.20
2018-04-13T17:52:58.610Z,12.20
2018-04-13T17:55:25.076Z,12.10
2018-04-13T17:57:51.606Z,11.90
2018-04-13T18:00:17.911Z,11.80
2018-04-13T18:02:44.339Z,11.70
2018-04-13T18:05:10.886Z,11.50
2018-04-13T18:07:38.304Z,11.60
2018-04-13T18:10:05.749Z,11.50
2018-04-13T18:12:32.339Z,11.50
2018-04-13T18:15:00.614Z,11.60
2018-04-13T18:17:27.029Z,11.70
2018-04-13T18:19:53.737Z,11.60
2018-04-13T18:22:21.379Z,11.50
2018-04-13T18:24:47.840Z,11.50
2018-04-13T18:27:15.948Z,11.60
2018-04-13T18:29:43.058Z,11.50
2018-04-13T18:32:09.534Z,11.50
2018-04-13T18:34:36.029Z,11.40
2018-04-13T18:37:02.613Z,11.40
2018-04-13T18:39:29.876Z,11.60
2018-04-13T18:41:57.333Z,11.50
2018-04-13T18:44:23.658Z,11.50
2018-04-13T18:46:50.097Z,11.50
2018-04-13T18:49:16.715Z,11.30
2018-04-13T18:51:44.231Z,11.40
2018-04-13T18:54:10.721Z,11.30
2018-04-13T18:56:37.293Z,11.30
2018-04-13T18:59:04.279Z,11.20
2018-04-13T19:01:30.952Z,11.10
2018-04-13T19:03:57.449Z,11.10
2018-04-13T19:06:24.576Z,11.10
2018-04-13T19:08:50.957Z,11.10
2018-04-13T19:11:18.110Z,10.90
2018-04-13T19:13:44.601Z,10.90
2018-04-13T19:16:11.112Z,10.80
2018-04-13T19:18:41.632Z,10.90
2018-04-13T19:21:08.253Z,10.80
2018-04-13T19:23:35.380Z,10.80
2018-04-13T19:26:02.246Z,10.70
2018-04-13T19:28:28.636Z,10.90
2018-04-13T19:30:55.019Z,10.90
2018-04-13T19:33:22.192Z,10.70
2018-04-13T19:35:49.136Z,10.70
2018-04-13T19:38:17.524Z,10.70
2018-04-13T19:40:46.695Z,10.70
2018-04-13T19:43:13.124Z,10.70
2018-04-13T19:45:39.701Z,10.80
2018-04-13T19:48:08.245Z,10.80
2018-04-13T19:50:37.165Z,10.70
2018-04-13T19:53:04.203Z,10.70
2018-04-13T19:55:30.689Z,10.60
2018-04-13T19:57:57.307Z,10.60
2018-04-13T20:00:23.681Z,10.60
2018-04-13T20:02:50.102Z,10.70
2018-04-13T20:05:16.474Z,10.60
2018-04-13T20:07:42.966Z,10.30
2018-04-13T20:10:10.097Z,10.30
2018-04-13T20:12:36.519Z,10.20
2018-04-13T20:15:05.022Z,10.20
2018-04-13T20:17:31.486Z,10.20
2018-04-13T20:19:57.828Z,10.30
2018-04-13T20:22:24.258Z,10.30
2018-04-13T20:24:52.431Z,10.40
2018-04-13T20:27:21.320Z,10.30
2018-04-13T20:29:47.736Z,10.40
2018-04-13T20:32:15.350Z,10.30
2018-04-13T20:34:45.324Z,10.30
2018-04-13T20:37:12.860Z,10.30
2018-04-13T20:39:39.360Z,10.30
2018-04-13T20:42:06.654Z,10.20
2018-04-13T20:44:34.152Z,10.20
2018-04-13T20:47:01.447Z,10.30
2018-04-13T20:49:27.846Z,10.30
2018-04-13T20:51:54.413Z,10.30
2018-04-13T20:54:20.779Z,10.00
2018-04-13T20:56:47.848Z,10.00
2018-04-13T20:59:18.707Z,10.10
2018-04-13T21:01:45.122Z,10.00
2018-04-13T21:04:12.363Z,10.10
2018-04-13T21:06:39.125Z,10.20
2018-04-13T21:09:05.776Z,10.20
2018-04-13T21:11:32.840Z,10.00
2018-04-13T21:14:00.109Z,10.00
2018-04-13T21:16:27.578Z,10.00
2018-04-13T21:18:54.003Z,9.90
2018-04-13T21:21:23.869Z,9.90
2018-04-13T21:23:52.373Z,9.90
2018-04-13T21:26:18.711Z,9.90
2018-04-13T21:28:50.489Z,10.00
2018-04-13T21:31:17.148Z,10.00
2018-04-13T21:33:43.599Z,10.00
2018-04-13T21:36:10.016Z,10.00
2018-04-13T21:38:36.725Z,10.00
2018-04-13T21:41:03.908Z,10.00
2018-04-13T21:43:30.461Z,10.20
2018-04-13T21:45:56.880Z,10.20
2018-04-13T21:48:23.384Z,10.30
2018-04-13T21:50:49.855Z,10.40
2018-04-13T21:53:16.359Z,10.30
2018-04-13T21:55:42.705Z,10.30
2018-04-13T21:58:09.179Z,10.30
2018-04-13T22:00:36.397Z,10.20
2018-04-13T22:03:02.845Z,10.20
2018-04-13T22:05:29.310Z,10.20
2018-04-13T22:07:55.899Z,10.10
2018-04-13T22:10:23.617Z,10.00
2018-04-13T22:13:02.409Z,10.00
2018-04-13T22:15:29.664Z,10.10
2018-04-13T22:17:56.049Z,10.10
2018-04-13T22:20:22.575Z,10.10
2018-04-13T22:22:48.964Z,10.00
2018-04-13T22:25:15.224Z,10.00
2018-04-13T22:27:41.541Z,9.90
2018-04-13T22:30:07.924Z,9.90
2018-04-13T22:32:36.162Z,9.90
2018-04-13T22:35:03.322Z,9.90
2018-04-13T22:37:29.689Z,9.90
2018-04-13T22:39:56.003Z,9.90
2018-04-13T22:42:22.270Z,9.90
2018-04-13T22:44:48.539Z,10.00
2018-04-13T22:47:14.812Z,9.90
2018-04-13T22:49:41.891Z,9.90
2018-04-13T22:52:09.263Z,9.90
2018-04-13T22:54:35.676Z,9.90
2018-04-13T22:57:01.943Z,9.90
2018-04-13T22:59:28.269Z,9.90
2018-04-13T23:01:55.273Z,9.70
2018-04-13T23:04:21.571Z,9.70
2018-04-13T23:06:48.590Z,9.80
2018-04-13T23:09:14.897Z,9.80
2018-04-13T23:11:41.929Z,10.10
2018-04-13T23:14:09.080Z,10.10
2018-04-13T23:16:36.188Z,10.00
2018-04-13T23:19:03.354Z,10.00
2018-04-13T23:21:29.618Z,10.00
2018-04-13T23:23:55.988Z,10.00
2018-04-13T23:26:22.271Z,10.00
2018-04-13T23:28:48.530Z,9.90
2018-04-13T23:31:14.813Z,10.00
2018-04-13T23:33:41.120Z,10.00
2018-04-13T23:36:07.467Z,9.90
2018-04-13T23:38:33.846Z,10.00
2018-04-13T23:41:00.957Z,10.00
2018-04-13T23:43:27.250Z,10.00
2018-04-13T23:45:53.529Z,9.90
2018-04-13T23:48:19.797Z,10.00
2018-04-13T23:50:46.825Z,10.00
2018-04-13T23:53:13.096Z,10.00
2018-04-13T23:55:39.477Z,10.10
2018-04-13T23:58:05.790Z,10.10
